NOZ1951 LDSP-ENGM
Flight info
| Callsign | NOZ1951 |
|---|---|
| Flight time | N/A |
| Altitude | 34000 |
| Route | SIRMI DCT MONID DCT PETOV DCT PISAM DCT HDO DCT USEDU DCT SALLO DCT ATRIB DCT ELBUX DCT SABAK DCT LUNIP |
| Aircraft | B738/M-SDE2E3FGHIRWXY/LB1 |
Departure
| Time | 2026-05-07 16:55 |
|---|---|
| Airport | Split Saint Jerome Airport (LDSP) |
Arrival
| Time | N/A |
|---|---|
| Airport | Oslo-Gardermoen International Airport (ENGM) |
| Time | Latitude | Longitude | Altitude | Speed | Heading |
|---|---|---|---|---|---|
| 2026-05-07 16:03 | 43.53764 | 16.29932 | 60 ft | 0 kts | 114° |
| 2026-05-07 16:49 | 43.53764 | 16.29933 | 67 ft | 0 kts | 109° |
| 2026-05-07 16:50 | 43.53770 | 16.29940 | 67 ft | 2 kts | 26° |
| 2026-05-07 16:50 | 43.53780 | 16.29915 | 60 ft | 6 kts | 285° |
| 2026-05-07 16:50 | 43.53785 | 16.29848 | 67 ft | 7 kts | 253° |
| 2026-05-07 16:50 | 43.53757 | 16.29791 | 63 ft | 7 kts | 231° |
| 2026-05-07 16:51 | 43.53727 | 16.29740 | 67 ft | 7 kts | 231° |
| 2026-05-07 16:51 | 43.53698 | 16.29688 | 67 ft | 7 kts | 232° |
| 2026-05-07 16:51 | 43.53672 | 16.29635 | 67 ft | 7 kts | 249° |
| 2026-05-07 16:51 | 43.53687 | 16.29578 | 69 ft | 7 kts | 306° |
| 2026-05-07 16:52 | 43.53700 | 16.29520 | 73 ft | 6 kts | 270° |
| 2026-05-07 16:52 | 43.53691 | 16.29449 | 75 ft | 10 kts | 252° |
| 2026-05-07 16:52 | 43.53647 | 16.29349 | 83 ft | 15 kts | 233° |
| 2026-05-07 16:52 | 43.53569 | 16.29210 | 76 ft | 22 kts | 232° |
| 2026-05-07 16:53 | 43.53468 | 16.29027 | 79 ft | 26 kts | 233° |
| 2026-05-07 16:53 | 43.53355 | 16.28823 | 81 ft | 26 kts | 232° |
| 2026-05-07 16:53 | 43.53264 | 16.28656 | 75 ft | 12 kts | 233° |
| 2026-05-07 16:53 | 43.53239 | 16.28581 | 70 ft | 7 kts | 230° |
| 2026-05-07 16:54 | 43.53231 | 16.28606 | 68 ft | 5 kts | 40° |
| 2026-05-07 16:54 | 43.53250 | 16.28633 | 74 ft | 0 kts | 53° |
| 2026-05-07 16:54 | 43.53261 | 16.28653 | 76 ft | 14 kts | 53° |
| 2026-05-07 16:55 | 43.53473 | 16.29039 | 80 ft | 87 kts | 52° |
| 2026-05-07 16:55 | 43.53982 | 16.29957 | 69 ft | 151 kts | 52° |
| 2026-05-07 16:55 | 43.54657 | 16.31265 | 437 ft | 171 kts | 57° |
| 2026-05-07 16:55 | 43.55277 | 16.32535 | 1542 ft | 155 kts | 63° |
| 2026-05-07 16:56 | 43.55426 | 16.34021 | 1928 ft | 172 kts | 113° |
| 2026-05-07 16:56 | 43.54617 | 16.35244 | 2522 ft | 182 kts | 140° |
| 2026-05-07 16:56 | 43.52379 | 16.37148 | 3765 ft | 194 kts | 152° |
| 2026-05-07 16:57 | 43.51176 | 16.37999 | 4342 ft | 199 kts | 152° |
| 2026-05-07 16:57 | 43.49866 | 16.38947 | 4597 ft | 227 kts | 152° |
| 2026-05-07 16:57 | 43.48420 | 16.40003 | 5118 ft | 237 kts | 152° |
| 2026-05-07 16:57 | 43.46941 | 16.40975 | 5481 ft | 232 kts | 166° |
| 2026-05-07 16:58 | 43.45388 | 16.40824 | 5475 ft | 227 kts | 206° |
| 2026-05-07 16:58 | 43.44258 | 16.39328 | 5689 ft | 232 kts | 234° |
| 2026-05-07 16:58 | 43.43367 | 16.37457 | 6406 ft | 234 kts | 244° |
| 2026-05-07 16:58 | 43.43131 | 16.35285 | 7127 ft | 230 kts | 275° |
| 2026-05-07 16:59 | 43.43728 | 16.33247 | 7520 ft | 233 kts | 306° |
| 2026-05-07 16:59 | 43.45004 | 16.31801 | 8094 ft | 245 kts | 333° |
| 2026-05-07 16:59 | 43.46634 | 16.31143 | 8790 ft | 249 kts | 345° |
| 2026-05-07 16:59 | 43.48351 | 16.30703 | 9494 ft | 252 kts | 345° |
| 2026-05-07 17:00 | 43.50120 | 16.30355 | 10097 ft | 261 kts | 353° |
| 2026-05-07 17:00 | 43.52020 | 16.30310 | 10323 ft | 285 kts | 356° |
| 2026-05-07 17:00 | 43.54060 | 16.30356 | 10520 ft | 308 kts | 357° |
| 2026-05-07 17:00 | 43.56280 | 16.30406 | 10694 ft | 331 kts | 358° |
| 2026-05-07 17:01 | 43.58658 | 16.30434 | 10935 ft | 350 kts | 357° |
| 2026-05-07 17:01 | 43.61139 | 16.30442 | 11376 ft | 360 kts | 356° |
| 2026-05-07 17:01 | 43.63655 | 16.30441 | 12159 ft | 360 kts | 357° |
| 2026-05-07 17:01 | 43.66172 | 16.30437 | 12882 ft | 364 kts | 356° |
| 2026-05-07 17:02 | 43.68691 | 16.30432 | 13502 ft | 369 kts | 356° |
| 2026-05-07 17:02 | 43.71283 | 16.30427 | 14134 ft | 373 kts | 356° |
| 2026-05-07 17:02 | 43.73881 | 16.30423 | 14769 ft | 376 kts | 356° |
| 2026-05-07 17:02 | 43.76519 | 16.30421 | 15389 ft | 380 kts | 356° |
| 2026-05-07 17:03 | 43.79181 | 16.30418 | 15965 ft | 384 kts | 356° |
| 2026-05-07 17:03 | 43.81848 | 16.30416 | 16558 ft | 387 kts | 356° |
| 2026-05-07 17:03 | 43.84557 | 16.30414 | 17161 ft | 390 kts | 355° |
| 2026-05-07 17:03 | 43.87288 | 16.30412 | 17790 ft | 393 kts | 355° |
| 2026-05-07 17:04 | 43.90035 | 16.30410 | 18382 ft | 396 kts | 355° |
| 2026-05-07 17:04 | 43.92815 | 16.30407 | 18874 ft | 400 kts | 355° |
| 2026-05-07 17:04 | 43.95610 | 16.30405 | 19358 ft | 404 kts | 355° |
| 2026-05-07 17:04 | 43.98409 | 16.30403 | 19841 ft | 408 kts | 355° |
| 2026-05-07 17:05 | 44.01263 | 16.30401 | 20307 ft | 411 kts | 355° |
| 2026-05-07 17:05 | 44.04149 | 16.30399 | 20793 ft | 415 kts | 355° |
| 2026-05-07 17:05 | 44.07047 | 16.30399 | 21260 ft | 418 kts | 354° |
| 2026-05-07 17:05 | 44.09932 | 16.30398 | 21698 ft | 422 kts | 354° |
| 2026-05-07 17:06 | 44.12880 | 16.30395 | 22154 ft | 425 kts | 354° |
| 2026-05-07 17:06 | 44.15853 | 16.30392 | 22615 ft | 429 kts | 354° |
| 2026-05-07 17:06 | 44.18856 | 16.30393 | 23059 ft | 433 kts | 354° |
| 2026-05-07 17:06 | 44.21879 | 16.30397 | 23519 ft | 436 kts | 354° |
| 2026-05-07 17:07 | 44.24923 | 16.30404 | 23889 ft | 439 kts | 354° |
| 2026-05-07 17:07 | 44.27984 | 16.30413 | 24276 ft | 440 kts | 354° |
| 2026-05-07 17:07 | 44.31061 | 16.30422 | 24666 ft | 442 kts | 354° |
| 2026-05-07 17:07 | 44.34118 | 16.30430 | 25031 ft | 444 kts | 354° |
| 2026-05-07 17:08 | 44.37218 | 16.30439 | 25384 ft | 445 kts | 354° |
| 2026-05-07 17:08 | 44.40323 | 16.30447 | 25760 ft | 446 kts | 354° |
| 2026-05-07 17:08 | 44.43447 | 16.30454 | 26034 ft | 449 kts | 354° |
| 2026-05-07 17:08 | 44.46562 | 16.30461 | 26331 ft | 453 kts | 354° |
| 2026-05-07 17:09 | 44.49726 | 16.30469 | 26702 ft | 454 kts | 354° |
| 2026-05-07 17:09 | 44.52903 | 16.30478 | 27050 ft | 455 kts | 354° |
| 2026-05-07 17:09 | 44.56027 | 16.30487 | 27367 ft | 456 kts | 354° |
| 2026-05-07 17:09 | 44.59223 | 16.30494 | 27645 ft | 460 kts | 354° |
| 2026-05-07 17:10 | 44.62435 | 16.30501 | 27923 ft | 463 kts | 354° |
| 2026-05-07 17:10 | 44.65673 | 16.30508 | 28181 ft | 466 kts | 354° |
| 2026-05-07 17:10 | 44.68934 | 16.30517 | 28497 ft | 468 kts | 354° |
| 2026-05-07 17:10 | 44.72163 | 16.30527 | 28827 ft | 469 kts | 354° |
| 2026-05-07 17:11 | 44.75440 | 16.30536 | 29137 ft | 471 kts | 354° |
| 2026-05-07 17:11 | 44.78729 | 16.30545 | 29473 ft | 472 kts | 354° |
| 2026-05-07 17:11 | 44.82016 | 16.30555 | 29848 ft | 471 kts | 354° |
| 2026-05-07 17:11 | 44.85308 | 16.30564 | 30099 ft | 473 kts | 355° |
| 2026-05-07 17:12 | 44.88566 | 16.30574 | 30385 ft | 473 kts | 354° |
| 2026-05-07 17:12 | 44.91862 | 16.30584 | 30776 ft | 471 kts | 354° |
| 2026-05-07 17:12 | 44.95137 | 16.30593 | 31181 ft | 468 kts | 354° |
| 2026-05-07 17:12 | 44.98339 | 16.30387 | 31539 ft | 460 kts | 346° |
| 2026-05-07 17:13 | 45.01496 | 16.29705 | 31847 ft | 458 kts | 343° |
| 2026-05-07 17:13 | 45.04639 | 16.28909 | 32075 ft | 458 kts | 343° |
| 2026-05-07 17:13 | 45.07782 | 16.28083 | 32411 ft | 457 kts | 342° |
| 2026-05-07 17:13 | 45.10915 | 16.27267 | 32793 ft | 455 kts | 342° |
| 2026-05-07 17:14 | 45.13987 | 16.26484 | 33173 ft | 453 kts | 342° |
| 2026-05-07 17:14 | 45.17089 | 16.25711 | 33489 ft | 452 kts | 342° |
| 2026-05-07 17:14 | 45.20199 | 16.24947 | 33786 ft | 451 kts | 343° |
| 2026-05-07 17:14 | 45.23300 | 16.24193 | 34025 ft | 451 kts | 342° |
| 2026-05-07 17:15 | 45.29507 | 16.22683 | 34000 ft | 455 kts | 343° |
| 2026-05-07 17:15 | 45.35731 | 16.21177 | 33986 ft | 450 kts | 342° |
| 2026-05-07 17:16 | 45.41883 | 16.19683 | 34025 ft | 448 kts | 342° |
| 2026-05-07 17:16 | 45.48025 | 16.18181 | 34009 ft | 448 kts | 342° |
| 2026-05-07 17:17 | 45.54179 | 16.16673 | 34019 ft | 449 kts | 342° |
| 2026-05-07 17:17 | 45.60308 | 16.15169 | 34003 ft | 450 kts | 342° |
| 2026-05-07 17:18 | 45.66497 | 16.13646 | 33994 ft | 452 kts | 342° |
| 2026-05-07 17:18 | 45.72712 | 16.12116 | 34000 ft | 454 kts | 342° |
| 2026-05-07 17:19 | 45.78952 | 16.10576 | 33997 ft | 456 kts | 342° |
| 2026-05-07 17:19 | 45.85207 | 16.09028 | 33998 ft | 457 kts | 342° |
| 2026-05-07 17:20 | 45.91480 | 16.07474 | 33990 ft | 457 kts | 342° |
| 2026-05-07 17:20 | 45.97738 | 16.05919 | 33990 ft | 456 kts | 342° |
| 2026-05-07 17:21 | 46.04012 | 16.04357 | 33998 ft | 456 kts | 342° |
| 2026-05-07 17:21 | 46.10265 | 16.02796 | 33970 ft | 456 kts | 342° |
| 2026-05-07 17:22 | 46.16497 | 16.01238 | 33970 ft | 454 kts | 342° |
| 2026-05-07 17:22 | 46.22686 | 15.99687 | 33955 ft | 453 kts | 342° |
| 2026-05-07 17:23 | 46.28885 | 15.98130 | 33947 ft | 451 kts | 342° |
| 2026-05-07 17:23 | 46.35080 | 15.96639 | 33957 ft | 451 kts | 343° |
| 2026-05-07 17:24 | 46.41280 | 15.95305 | 33955 ft | 450 kts | 343° |
| 2026-05-07 17:24 | 46.47476 | 15.93985 | 33957 ft | 449 kts | 343° |
| 2026-05-07 17:25 | 46.53630 | 15.92653 | 33947 ft | 450 kts | 344° |
| 2026-05-07 17:25 | 46.59835 | 15.91295 | 33944 ft | 451 kts | 344° |
| 2026-05-07 17:26 | 46.66063 | 15.89926 | 33939 ft | 453 kts | 344° |
| 2026-05-07 17:26 | 46.72308 | 15.88550 | 33940 ft | 455 kts | 344° |
| 2026-05-07 17:27 | 46.78579 | 15.87167 | 33946 ft | 456 kts | 344° |
| 2026-05-07 17:27 | 46.84830 | 15.85784 | 33952 ft | 459 kts | 344° |
| 2026-05-07 17:28 | 46.91160 | 15.84381 | 33978 ft | 460 kts | 345° |
| 2026-05-07 17:28 | 46.97501 | 15.82972 | 33963 ft | 462 kts | 345° |
| 2026-05-07 17:29 | 47.03883 | 15.81551 | 33957 ft | 464 kts | 345° |
| 2026-05-07 17:29 | 47.10272 | 15.80125 | 33977 ft | 465 kts | 345° |
| 2026-05-07 17:30 | 47.16678 | 15.78691 | 33976 ft | 467 kts | 345° |
| 2026-05-07 17:30 | 47.23061 | 15.77260 | 33987 ft | 468 kts | 345° |
| 2026-05-07 17:31 | 47.29510 | 15.75810 | 33988 ft | 468 kts | 345° |
| 2026-05-07 17:31 | 47.35956 | 15.74357 | 34013 ft | 469 kts | 345° |
| 2026-05-07 17:32 | 47.42413 | 15.72898 | 34004 ft | 470 kts | 345° |
| 2026-05-07 17:32 | 47.47798 | 15.71678 | 34000 ft | 470 kts | 345° |
| 2026-05-07 17:33 | 47.55342 | 15.69966 | 33989 ft | 469 kts | 345° |
| 2026-05-07 17:33 | 47.61748 | 15.68508 | 34003 ft | 468 kts | 345° |
| 2026-05-07 17:34 | 47.68177 | 15.67041 | 34012 ft | 465 kts | 346° |
| 2026-05-07 17:34 | 47.74565 | 15.65580 | 34003 ft | 462 kts | 346° |
| 2026-05-07 17:35 | 47.80899 | 15.64129 | 34006 ft | 459 kts | 346° |
| 2026-05-07 17:35 | 47.87200 | 15.62679 | 34003 ft | 456 kts | 346° |
| 2026-05-07 17:36 | 47.93418 | 15.61244 | 34002 ft | 454 kts | 346° |
| 2026-05-07 17:36 | 47.99668 | 15.59798 | 34004 ft | 455 kts | 346° |
| 2026-05-07 17:37 | 48.04882 | 15.58590 | 34017 ft | 456 kts | 346° |
| 2026-05-07 17:37 | 48.11162 | 15.57132 | 34004 ft | 457 kts | 346° |
| 2026-05-07 17:38 | 48.17468 | 15.55664 | 34002 ft | 459 kts | 346° |
| 2026-05-07 17:38 | 48.23799 | 15.54186 | 34004 ft | 461 kts | 347° |
| 2026-05-07 17:39 | 48.30113 | 15.52710 | 33986 ft | 462 kts | 347° |
| 2026-05-07 17:39 | 48.36493 | 15.51215 | 33989 ft | 463 kts | 347° |
| 2026-05-07 17:40 | 48.42843 | 15.49723 | 33989 ft | 464 kts | 347° |
| 2026-05-07 17:40 | 48.49232 | 15.48218 | 33979 ft | 464 kts | 347° |
| 2026-05-07 17:41 | 48.55613 | 15.46711 | 33976 ft | 464 kts | 347° |
| 2026-05-07 17:41 | 48.61993 | 15.45201 | 33979 ft | 464 kts | 347° |
| 2026-05-07 17:42 | 48.68337 | 15.43695 | 33971 ft | 463 kts | 347° |
| 2026-05-07 17:42 | 48.74722 | 15.42177 | 34011 ft | 463 kts | 347° |
| 2026-05-07 17:43 | 48.81065 | 15.40666 | 33972 ft | 463 kts | 348° |
| 2026-05-07 17:43 | 48.87407 | 15.39149 | 33970 ft | 462 kts | 348° |
| 2026-05-07 17:44 | 48.93626 | 15.36911 | 33983 ft | 456 kts | 339° |
| 2026-05-07 17:44 | 48.99655 | 15.33909 | 33973 ft | 456 kts | 338° |
| 2026-05-07 17:45 | 49.05652 | 15.30885 | 33977 ft | 456 kts | 338° |
| 2026-05-07 17:45 | 49.11698 | 15.27913 | 33983 ft | 456 kts | 339° |
| 2026-05-07 17:46 | 49.17728 | 15.24988 | 33978 ft | 456 kts | 339° |
| 2026-05-07 17:46 | 49.23776 | 15.22059 | 33996 ft | 457 kts | 339° |
| 2026-05-07 17:47 | 49.29834 | 15.19116 | 33982 ft | 458 kts | 339° |
| 2026-05-07 17:47 | 49.35910 | 15.16155 | 33966 ft | 458 kts | 339° |
| 2026-05-07 17:48 | 49.41970 | 15.13193 | 33975 ft | 458 kts | 339° |
| 2026-05-07 17:48 | 49.48057 | 15.10210 | 33967 ft | 458 kts | 339° |
| 2026-05-07 17:49 | 49.54141 | 15.07221 | 33983 ft | 458 kts | 339° |
| 2026-05-07 17:49 | 49.60184 | 15.04244 | 33970 ft | 458 kts | 339° |
| 2026-05-07 17:50 | 49.66262 | 15.01241 | 33995 ft | 458 kts | 339° |
| 2026-05-07 17:50 | 49.72312 | 14.98245 | 33974 ft | 458 kts | 339° |
| 2026-05-07 17:51 | 49.78404 | 14.95221 | 33975 ft | 458 kts | 339° |
| 2026-05-07 17:51 | 49.84432 | 14.92219 | 33965 ft | 457 kts | 339° |
| 2026-05-07 17:52 | 49.90492 | 14.89195 | 33970 ft | 456 kts | 339° |
| 2026-05-07 17:52 | 49.96545 | 14.86165 | 33973 ft | 456 kts | 339° |
| 2026-05-07 17:53 | 50.02558 | 14.83148 | 33983 ft | 456 kts | 339° |
| 2026-05-07 17:53 | 50.08611 | 14.80103 | 33986 ft | 456 kts | 339° |
| 2026-05-07 17:54 | 50.14633 | 14.77065 | 34005 ft | 456 kts | 339° |
| 2026-05-07 17:54 | 50.20688 | 14.74003 | 33987 ft | 455 kts | 339° |
| 2026-05-07 17:55 | 50.26683 | 14.70963 | 33988 ft | 453 kts | 339° |
| 2026-05-07 17:55 | 50.32676 | 14.67915 | 33976 ft | 452 kts | 339° |
| 2026-05-07 17:56 | 50.38621 | 14.64885 | 33979 ft | 450 kts | 339° |
| 2026-05-07 17:56 | 50.44582 | 14.61838 | 33978 ft | 449 kts | 339° |
| 2026-05-07 17:57 | 50.49539 | 14.59298 | 33999 ft | 448 kts | 339° |
| 2026-05-07 17:57 | 50.56448 | 14.55748 | 34000 ft | 448 kts | 339° |
| 2026-05-07 17:58 | 50.62353 | 14.52706 | 34001 ft | 448 kts | 339° |
| 2026-05-07 17:58 | 50.68291 | 14.49639 | 34011 ft | 448 kts | 339° |
| 2026-05-07 17:59 | 50.74201 | 14.46578 | 34016 ft | 448 kts | 339° |
| 2026-05-07 17:59 | 50.80120 | 14.43506 | 34011 ft | 449 kts | 339° |
| 2026-05-07 18:00 | 50.86068 | 14.40411 | 34030 ft | 450 kts | 339° |
| 2026-05-07 18:00 | 50.92045 | 14.37335 | 34184 ft | 458 kts | 342° |
| 2026-05-07 18:01 | 50.95185 | 14.36287 | 34325 ft | 461 kts | 349° |
| 2026-05-07 18:01 | 50.98371 | 14.35545 | 34558 ft | 461 kts | 350° |
| 2026-05-07 18:01 | 51.01561 | 14.34881 | 34811 ft | 460 kts | 351° |
| 2026-05-07 18:01 | 51.04736 | 14.34235 | 35019 ft | 460 kts | 351° |
| 2026-05-07 18:02 | 51.11067 | 14.32902 | 35453 ft | 459 kts | 350° |
| 2026-05-07 18:02 | 51.14220 | 14.32211 | 35777 ft | 456 kts | 350° |
| 2026-05-07 18:02 | 51.17337 | 14.31513 | 35974 ft | 455 kts | 350° |
| 2026-05-07 18:03 | 51.20487 | 14.30799 | 36035 ft | 457 kts | 350° |
| 2026-05-07 18:03 | 51.26815 | 14.29351 | 36051 ft | 460 kts | 350° |
| 2026-05-07 18:04 | 51.33131 | 14.27904 | 36054 ft | 459 kts | 350° |
| 2026-05-07 18:04 | 51.39456 | 14.26451 | 36050 ft | 457 kts | 350° |
| 2026-05-07 18:05 | 51.45724 | 14.25009 | 36054 ft | 456 kts | 350° |
| 2026-05-07 18:05 | 51.52023 | 14.23556 | 36056 ft | 456 kts | 350° |
| 2026-05-07 18:06 | 51.58288 | 14.22107 | 36053 ft | 455 kts | 350° |
| 2026-05-07 18:06 | 51.64533 | 14.20658 | 36066 ft | 455 kts | 350° |
| 2026-05-07 18:07 | 51.70815 | 14.19197 | 36062 ft | 456 kts | 350° |
| 2026-05-07 18:07 | 51.77084 | 14.17735 | 36066 ft | 456 kts | 350° |
| 2026-05-07 18:08 | 51.83384 | 14.16260 | 36064 ft | 457 kts | 350° |
| 2026-05-07 18:08 | 51.89673 | 14.14785 | 36067 ft | 458 kts | 350° |
| 2026-05-07 18:09 | 51.95997 | 14.13297 | 36069 ft | 458 kts | 350° |
| 2026-05-07 18:09 | 52.02295 | 14.11811 | 36068 ft | 459 kts | 350° |
| 2026-05-07 18:10 | 52.08633 | 14.10312 | 36072 ft | 459 kts | 350° |
| 2026-05-07 18:10 | 52.14929 | 14.08818 | 36072 ft | 459 kts | 350° |
| 2026-05-07 18:11 | 52.21188 | 14.07329 | 36075 ft | 459 kts | 350° |
| 2026-05-07 18:11 | 52.27491 | 14.05824 | 36074 ft | 459 kts | 350° |
| 2026-05-07 18:12 | 52.33796 | 14.04315 | 36076 ft | 459 kts | 350° |
| 2026-05-07 18:12 | 52.40128 | 14.02795 | 36088 ft | 458 kts | 350° |
| 2026-05-07 18:13 | 52.46417 | 14.01281 | 36087 ft | 458 kts | 350° |
| 2026-05-07 18:13 | 52.52734 | 13.99757 | 36074 ft | 457 kts | 350° |
| 2026-05-07 18:14 | 52.58992 | 13.98242 | 36066 ft | 456 kts | 350° |
| 2026-05-07 18:14 | 52.65256 | 13.96721 | 36083 ft | 454 kts | 350° |
| 2026-05-07 18:15 | 52.71527 | 13.95194 | 36082 ft | 454 kts | 350° |
| 2026-05-07 18:15 | 52.77751 | 13.93673 | 36086 ft | 453 kts | 350° |
| 2026-05-07 18:16 | 52.83999 | 13.92143 | 36088 ft | 453 kts | 350° |
| 2026-05-07 18:16 | 52.90195 | 13.90621 | 36087 ft | 453 kts | 350° |
| 2026-05-07 18:17 | 52.96441 | 13.89082 | 36096 ft | 453 kts | 350° |
| 2026-05-07 18:17 | 53.02685 | 13.87538 | 36094 ft | 453 kts | 350° |
| 2026-05-07 18:18 | 53.08933 | 13.85990 | 36098 ft | 454 kts | 350° |
| 2026-05-07 18:18 | 53.15152 | 13.84445 | 36101 ft | 454 kts | 350° |
| 2026-05-07 18:19 | 53.21412 | 13.82885 | 36107 ft | 454 kts | 350° |
| 2026-05-07 18:19 | 53.27630 | 13.81331 | 36096 ft | 454 kts | 350° |
| 2026-05-07 18:20 | 53.33884 | 13.79762 | 36100 ft | 453 kts | 350° |
| 2026-05-07 18:20 | 53.40134 | 13.78190 | 36097 ft | 453 kts | 350° |
| 2026-05-07 18:21 | 53.46344 | 13.76624 | 36106 ft | 453 kts | 350° |
| 2026-05-07 18:21 | 53.52592 | 13.75044 | 36113 ft | 453 kts | 350° |
| 2026-05-07 18:22 | 53.58804 | 13.73468 | 36109 ft | 452 kts | 350° |
| 2026-05-07 18:22 | 53.65007 | 13.71889 | 36118 ft | 452 kts | 350° |
| 2026-05-07 18:23 | 53.71258 | 13.70294 | 36108 ft | 452 kts | 350° |
| 2026-05-07 18:23 | 53.77442 | 13.68710 | 36111 ft | 452 kts | 350° |
| 2026-05-07 18:24 | 53.83672 | 13.67111 | 36120 ft | 452 kts | 350° |
| 2026-05-07 18:24 | 53.88844 | 13.65779 | 36114 ft | 451 kts | 350° |
| 2026-05-07 18:25 | 53.95041 | 13.64180 | 36128 ft | 451 kts | 350° |
| 2026-05-07 18:25 | 54.01252 | 13.62571 | 36130 ft | 450 kts | 350° |
| 2026-05-07 18:26 | 54.07424 | 13.60968 | 36116 ft | 450 kts | 350° |
| 2026-05-07 18:26 | 54.13620 | 13.59354 | 36125 ft | 449 kts | 350° |
| 2026-05-07 18:27 | 54.19818 | 13.57734 | 36129 ft | 449 kts | 350° |
| 2026-05-07 18:27 | 54.25959 | 13.56124 | 36131 ft | 448 kts | 350° |
| 2026-05-07 18:28 | 54.32125 | 13.54503 | 36130 ft | 448 kts | 350° |
| 2026-05-07 18:28 | 54.38255 | 13.52887 | 36137 ft | 447 kts | 350° |
| 2026-05-07 18:29 | 54.44419 | 13.51257 | 36132 ft | 447 kts | 350° |
| 2026-05-07 18:29 | 54.50540 | 13.49634 | 36144 ft | 446 kts | 350° |
| 2026-05-07 18:30 | 54.56677 | 13.48002 | 36140 ft | 445 kts | 350° |
| 2026-05-07 18:30 | 54.62775 | 13.46374 | 36134 ft | 445 kts | 350° |
| 2026-05-07 18:31 | 54.68900 | 13.44735 | 36137 ft | 444 kts | 350° |
| 2026-05-07 18:31 | 54.74846 | 13.43140 | 36145 ft | 443 kts | 350° |
| 2026-05-07 18:32 | 54.80893 | 13.41514 | 36152 ft | 442 kts | 351° |
| 2026-05-07 18:32 | 54.86916 | 13.39890 | 36136 ft | 442 kts | 350° |
| 2026-05-07 18:33 | 54.92933 | 13.38082 | 36132 ft | 441 kts | 344° |
| 2026-05-07 18:33 | 54.98754 | 13.34930 | 36135 ft | 440 kts | 341° |
| 2026-05-07 18:34 | 55.04562 | 13.31512 | 36138 ft | 439 kts | 341° |
| 2026-05-07 18:34 | 55.10378 | 13.28151 | 36151 ft | 439 kts | 341° |
| 2026-05-07 18:35 | 55.16176 | 13.24860 | 36143 ft | 439 kts | 342° |
| 2026-05-07 18:35 | 55.21973 | 13.21586 | 36142 ft | 438 kts | 342° |
| 2026-05-07 18:36 | 55.27773 | 13.18304 | 36135 ft | 437 kts | 342° |
| 2026-05-07 18:36 | 55.33550 | 13.15023 | 36130 ft | 437 kts | 342° |
| 2026-05-07 18:37 | 55.39320 | 13.11735 | 36146 ft | 436 kts | 342° |
| 2026-05-07 18:37 | 55.45112 | 13.08423 | 36137 ft | 436 kts | 342° |
| 2026-05-07 18:38 | 55.50864 | 13.05124 | 36143 ft | 435 kts | 342° |
| 2026-05-07 18:38 | 55.56606 | 13.01821 | 36147 ft | 435 kts | 342° |
| 2026-05-07 18:39 | 55.62376 | 12.98492 | 36155 ft | 435 kts | 342° |
| 2026-05-07 18:39 | 55.68114 | 12.95170 | 36160 ft | 435 kts | 341° |
| 2026-05-07 18:40 | 55.73859 | 12.91835 | 36156 ft | 436 kts | 341° |
| 2026-05-07 18:40 | 55.79615 | 12.88483 | 36148 ft | 436 kts | 341° |
| 2026-05-07 18:41 | 55.85367 | 12.85123 | 36149 ft | 436 kts | 341° |
| 2026-05-07 18:41 | 55.91122 | 12.81750 | 36148 ft | 436 kts | 341° |
| 2026-05-07 18:42 | 55.96866 | 12.78373 | 36149 ft | 436 kts | 341° |
| 2026-05-07 18:42 | 56.02641 | 12.74967 | 36146 ft | 436 kts | 341° |
| 2026-05-07 18:43 | 56.08383 | 12.71570 | 36139 ft | 436 kts | 341° |
| 2026-05-07 18:43 | 56.14153 | 12.68148 | 36147 ft | 435 kts | 341° |
| 2026-05-07 18:44 | 56.19899 | 12.64727 | 36146 ft | 435 kts | 341° |
| 2026-05-07 18:44 | 56.25629 | 12.61307 | 36130 ft | 435 kts | 341° |
| 2026-05-07 18:45 | 56.31366 | 12.57872 | 36131 ft | 435 kts | 341° |
| 2026-05-07 18:45 | 56.37103 | 12.54428 | 36135 ft | 435 kts | 341° |
| 2026-05-07 18:46 | 56.42806 | 12.51019 | 36136 ft | 435 kts | 342° |
| 2026-05-07 18:46 | 56.48660 | 12.48169 | 36158 ft | 435 kts | 345° |
| 2026-05-07 18:47 | 56.54559 | 12.45549 | 36135 ft | 436 kts | 345° |
| 2026-05-07 18:47 | 56.60356 | 12.42936 | 36132 ft | 435 kts | 345° |
| 2026-05-07 18:48 | 56.66165 | 12.40261 | 36133 ft | 435 kts | 344° |
| 2026-05-07 18:48 | 56.72031 | 12.37530 | 36134 ft | 435 kts | 344° |
| 2026-05-07 18:49 | 56.77871 | 12.34801 | 36142 ft | 435 kts | 344° |
| 2026-05-07 18:49 | 56.83722 | 12.32058 | 36143 ft | 435 kts | 344° |
| 2026-05-07 18:50 | 56.89574 | 12.29307 | 36139 ft | 434 kts | 344° |
| 2026-05-07 18:50 | 56.95425 | 12.26547 | 36142 ft | 434 kts | 344° |
| 2026-05-07 18:51 | 57.01266 | 12.23783 | 36142 ft | 433 kts | 344° |
| 2026-05-07 18:51 | 57.07093 | 12.21018 | 36154 ft | 433 kts | 343° |
| 2026-05-07 18:52 | 57.12928 | 12.18239 | 36135 ft | 432 kts | 343° |
| 2026-05-07 18:52 | 57.18751 | 12.15457 | 36142 ft | 431 kts | 343° |
| 2026-05-07 18:53 | 57.24532 | 12.12686 | 36144 ft | 431 kts | 343° |
| 2026-05-07 18:53 | 57.30360 | 12.09883 | 36140 ft | 431 kts | 343° |
| 2026-05-07 18:54 | 57.36152 | 12.07090 | 36155 ft | 430 kts | 343° |
| 2026-05-07 18:54 | 57.41934 | 12.04293 | 36142 ft | 430 kts | 343° |
| 2026-05-07 18:55 | 57.47723 | 12.01483 | 36142 ft | 430 kts | 343° |
| 2026-05-07 18:55 | 57.53502 | 11.98671 | 36148 ft | 430 kts | 343° |
| 2026-05-07 18:56 | 57.59264 | 11.95771 | 36143 ft | 429 kts | 342° |
| 2026-05-07 18:56 | 57.65003 | 11.92702 | 36158 ft | 429 kts | 341° |
| 2026-05-07 18:57 | 57.70709 | 11.89637 | 36133 ft | 429 kts | 341° |
| 2026-05-07 18:57 | 57.76456 | 11.86564 | 36128 ft | 429 kts | 341° |
| 2026-05-07 18:58 | 57.82193 | 11.83496 | 36130 ft | 429 kts | 341° |
| 2026-05-07 18:58 | 57.87922 | 11.80425 | 36130 ft | 428 kts | 341° |
| 2026-05-07 18:59 | 57.93678 | 11.77329 | 36154 ft | 428 kts | 341° |
| 2026-05-07 18:59 | 57.99391 | 11.74245 | 36138 ft | 428 kts | 340° |
| 2026-05-07 19:00 | 58.05113 | 11.71145 | 36145 ft | 428 kts | 340° |
| 2026-05-07 19:00 | 58.10830 | 11.68042 | 36142 ft | 428 kts | 340° |
| 2026-05-07 19:01 | 58.16562 | 11.64916 | 36154 ft | 427 kts | 340° |
| 2026-05-07 19:01 | 58.19416 | 11.63557 | 35936 ft | 427 kts | 345° |
| 2026-05-07 19:01 | 58.22339 | 11.62546 | 35682 ft | 421 kts | 347° |
| 2026-05-07 19:01 | 58.25208 | 11.61678 | 35425 ft | 414 kts | 347° |
| 2026-05-07 19:02 | 58.28041 | 11.60852 | 35170 ft | 409 kts | 347° |
| 2026-05-07 19:02 | 58.30838 | 11.60025 | 34917 ft | 404 kts | 347° |
| 2026-05-07 19:02 | 58.33576 | 11.59195 | 34687 ft | 400 kts | 347° |
| 2026-05-07 19:02 | 58.36327 | 11.58340 | 34443 ft | 397 kts | 347° |
| 2026-05-07 19:03 | 58.39046 | 11.57482 | 34208 ft | 393 kts | 346° |
| 2026-05-07 19:03 | 58.41711 | 11.56632 | 33943 ft | 391 kts | 346° |
| 2026-05-07 19:03 | 58.44371 | 11.55779 | 33634 ft | 385 kts | 346° |
| 2026-05-07 19:03 | 58.47006 | 11.54932 | 33287 ft | 381 kts | 346° |
| 2026-05-07 19:04 | 58.49618 | 11.54090 | 32921 ft | 377 kts | 346° |
| 2026-05-07 19:04 | 58.52164 | 11.53268 | 32594 ft | 374 kts | 346° |
| 2026-05-07 19:04 | 58.54734 | 11.52437 | 32216 ft | 371 kts | 345° |
| 2026-05-07 19:04 | 58.57259 | 11.51619 | 31855 ft | 368 kts | 345° |
| 2026-05-07 19:05 | 58.59789 | 11.50799 | 31493 ft | 366 kts | 345° |
| 2026-05-07 19:05 | 58.62290 | 11.49987 | 31147 ft | 363 kts | 345° |
| 2026-05-07 19:05 | 58.64745 | 11.49188 | 30800 ft | 360 kts | 345° |
| 2026-05-07 19:05 | 58.67214 | 11.48384 | 30459 ft | 358 kts | 345° |
| 2026-05-07 19:06 | 58.69671 | 11.47582 | 30102 ft | 356 kts | 345° |
| 2026-05-07 19:06 | 58.74502 | 11.46005 | 29343 ft | 350 kts | 345° |
| 2026-05-07 19:06 | 58.76901 | 11.45220 | 28983 ft | 346 kts | 345° |
| 2026-05-07 19:07 | 58.79275 | 11.44442 | 28632 ft | 343 kts | 345° |
| 2026-05-07 19:07 | 58.81594 | 11.43681 | 28292 ft | 340 kts | 345° |
| 2026-05-07 19:07 | 58.83917 | 11.42918 | 27955 ft | 337 kts | 344° |
| 2026-05-07 19:07 | 58.86252 | 11.42321 | 27441 ft | 343 kts | 353° |
| 2026-05-07 19:08 | 58.88646 | 11.42398 | 27088 ft | 343 kts | 356° |
| 2026-05-07 19:08 | 58.91048 | 11.42608 | 26689 ft | 343 kts | 356° |
| 2026-05-07 19:08 | 58.93397 | 11.42831 | 26345 ft | 341 kts | 356° |
| 2026-05-07 19:08 | 58.95760 | 11.43046 | 25995 ft | 339 kts | 356° |
| 2026-05-07 19:09 | 58.98113 | 11.43245 | 25655 ft | 337 kts | 356° |
| 2026-05-07 19:09 | 59.00451 | 11.43430 | 25318 ft | 334 kts | 356° |
| 2026-05-07 19:09 | 59.02783 | 11.43606 | 24977 ft | 332 kts | 356° |
| 2026-05-07 19:09 | 59.05053 | 11.43773 | 24669 ft | 330 kts | 356° |
| 2026-05-07 19:10 | 59.07351 | 11.43938 | 24339 ft | 329 kts | 356° |
| 2026-05-07 19:10 | 59.09640 | 11.44100 | 24010 ft | 328 kts | 356° |
| 2026-05-07 19:10 | 59.11920 | 11.44263 | 23683 ft | 327 kts | 355° |
| 2026-05-07 19:10 | 59.14194 | 11.44425 | 23287 ft | 325 kts | 356° |
| 2026-05-07 19:11 | 59.16421 | 11.44584 | 22941 ft | 323 kts | 356° |
| 2026-05-07 19:11 | 59.18656 | 11.44745 | 22624 ft | 319 kts | 356° |
| 2026-05-07 19:11 | 59.20881 | 11.44905 | 22292 ft | 317 kts | 356° |
| 2026-05-07 19:11 | 59.23079 | 11.45062 | 21981 ft | 314 kts | 356° |
| 2026-05-07 19:12 | 59.25242 | 11.45216 | 21665 ft | 314 kts | 356° |
| 2026-05-07 19:12 | 59.27429 | 11.45372 | 21348 ft | 314 kts | 356° |
| 2026-05-07 19:12 | 59.29635 | 11.45527 | 21046 ft | 321 kts | 356° |
| 2026-05-07 19:12 | 59.31906 | 11.45686 | 20729 ft | 330 kts | 356° |
| 2026-05-07 19:13 | 59.34213 | 11.45854 | 20371 ft | 331 kts | 356° |
| 2026-05-07 19:13 | 59.36510 | 11.46025 | 20038 ft | 328 kts | 357° |
| 2026-05-07 19:13 | 59.38759 | 11.46189 | 19737 ft | 326 kts | 356° |
| 2026-05-07 19:13 | 59.41023 | 11.46265 | 19481 ft | 321 kts | 354° |
| 2026-05-07 19:14 | 59.43240 | 11.46159 | 19169 ft | 318 kts | 352° |
| 2026-05-07 19:14 | 59.45453 | 11.45999 | 18865 ft | 317 kts | 352° |
| 2026-05-07 19:14 | 59.47665 | 11.45830 | 18560 ft | 323 kts | 352° |
| 2026-05-07 19:14 | 59.49986 | 11.45648 | 18229 ft | 352 kts | 353° |
| 2026-05-07 19:15 | 59.52491 | 11.45468 | 17807 ft | 363 kts | 354° |
| 2026-05-07 19:15 | 59.55026 | 11.45310 | 17413 ft | 363 kts | 354° |
| 2026-05-07 19:15 | 59.57547 | 11.45167 | 17041 ft | 359 kts | 354° |
| 2026-05-07 19:15 | 59.60004 | 11.44867 | 16648 ft | 354 kts | 347° |
| 2026-05-07 19:16 | 59.62351 | 11.43438 | 15752 ft | 356 kts | 327° |
| 2026-05-07 19:16 | 59.63669 | 11.41448 | 14707 ft | 366 kts | 309° |